Time,TemperatureF,DewpointF,PressureIn,WindDirection,WindDirectionDegrees,WindSpeedMPH,WindSpeedGustMPH,Humidity,HourlyPrecipIn,Conditions,Clouds,dailyrainin,SoftwareType,DateUTC
2013-10-10 00:00:00,42.9,42.9,29.67,NE,34,0.0,12.0,100,0.00,,,0.00,Wunderground v.1.15,2013-10-10 07:00:00,
2013-10-10 00:10:00,42.9,42.9,29.66,NNE,31,0.0,12.0,100,0.00,,,0.00,Wunderground v.1.15,2013-10-10 07:10:00,
2013-10-10 00:20:00,42.8,42.8,29.66,NNE,31,0.0,12.0,100,0.00,,,0.00,Wunderground v.1.15,2013-10-10 07:20:00,
2013-10-10 00:30:00,42.2,42.2,29.66,NNE,31,0.0,12.0,100,0.00,,,0.00,Wunderground v.1.15,2013-10-10 07:30:00,
2013-10-10 00:40:00,41.8,41.8,29.67,NNE,31,0.0,12.0,100,0.00,,,0.00,Wunderground v.1.15,2013-10-10 07:40:00,
2013-10-10 00:50:00,41.3,41.3,29.67,NNE,31,0.0,12.0,100,0.00,,,0.00,Wunderground v.1.15,2013-10-10 07:50:00,
2013-10-10 01:00:00,41.2,41.2,29.67,NNE,31,0.0,12.0,100,0.00,,,0.00,Wunderground v.1.15,2013-10-10 08:00:00,
2013-10-10 01:10:00,40.9,40.9,29.67,NNE,31,0.0,12.0,100,0.00,,,0.00,Wunderground v.1.15,2013-10-10 08:10:00,
2013-10-10 01:20:00,41.2,41.2,29.67,NNE,31,0.0,12.0,100,0.00,,,0.00,Wunderground v.1.15,2013-10-10 08:20:00,
2013-10-10 01:30:00,41.1,41.1,29.67,NNE,31,0.0,12.0,100,0.00,,,0.00,Wunderground v.1.15,2013-10-10 08:30:00,
2013-10-10 01:40:00,40.8,40.8,29.67,NNE,31,0.0,12.0,100,0.00,,,0.00,Wunderground v.1.15,2013-10-10 08:40:00,
2013-10-10 01:50:00,40.6,40.6,29.67,NNE,31,0.0,12.0,100,0.00,,,0.00,Wunderground v.1.15,2013-10-10 08:50:00,
2013-10-10 02:00:00,40.6,40.6,29.67,NNE,31,0.0,12.0,100,0.00,,,0.00,Wunderground v.1.15,2013-10-10 09:00:00,
2013-10-10 02:10:00,40.2,40.2,29.68,NNE,31,0.0,12.0,100,0.00,,,0.00,Wunderground v.1.15,2013-10-10 09:10:00,
2013-10-10 02:20:00,40.1,40.1,29.68,NNE,31,0.0,12.0,100,0.00,,,0.00,Wunderground v.1.15,2013-10-10 09:20:00,
2013-10-10 02:30:00,40.1,40.1,29.68,NNE,31,0.0,12.0,100,0.00,,,0.00,Wunderground v.1.15,2013-10-10 09:30:00,
2013-10-10 02:40:00,40.1,40.1,29.68,NNE,31,0.0,12.0,100,0.00,,,0.00,Wunderground v.1.15,2013-10-10 09:40:00,
2013-10-10 02:50:00,39.6,39.6,29.67,NNE,31,0.0,12.0,100,0.00,,,0.00,Wunderground v.1.15,2013-10-10 09:50:00,
2013-10-10 03:00:00,39.5,39.5,29.67,NNE,31,0.0,12.0,100,0.00,,,0.00,Wunderground v.1.15,2013-10-10 10:00:00,
2013-10-10 03:10:00,39.3,39.3,29.68,NNE,31,0.0,12.0,100,0.00,,,0.00,Wunderground v.1.15,2013-10-10 10:10:00,
2013-10-10 03:20:00,38.8,38.8,29.68,NNE,30,0.0,12.0,100,0.00,,,0.00,Wunderground v.1.15,2013-10-10 10:20:00,
2013-10-10 03:30:00,38.8,38.8,29.68,NNE,31,0.0,12.0,100,0.00,,,0.00,Wunderground v.1.15,2013-10-10 10:30:00,
2013-10-10 03:40:00,39.2,39.2,29.68,NNE,31,0.0,12.0,100,0.00,,,0.00,Wunderground v.1.15,2013-10-10 10:40:00,
2013-10-10 03:50:00,38.6,38.6,29.69,NNE,31,0.0,12.0,100,0.00,,,0.00,Wunderground v.1.15,2013-10-10 10:50:00,
2013-10-10 04:00:00,38.8,38.8,29.69,NNE,31,0.0,12.0,100,0.00,,,0.00,Wunderground v.1.15,2013-10-10 11:00:00,
2013-10-10 04:10:00,39.2,39.2,29.70,NNE,31,0.0,12.0,100,0.00,,,0.00,Wunderground v.1.15,2013-10-10 11:10:00,
2013-10-10 04:20:00,39.5,39.5,29.70,South,188,0.0,12.0,100,0.00,,,0.00,Wunderground v.1.15,2013-10-10 11:20:00,
2013-10-10 04:30:00,39.9,39.9,29.70,South,188,0.0,12.0,100,0.00,,,0.00,Wunderground v.1.15,2013-10-10 11:30:00,
2013-10-10 04:40:00,40.2,40.2,29.70,South,188,0.0,12.0,100,0.00,,,0.00,Wunderground v.1.15,2013-10-10 11:40:00,
2013-10-10 04:50:00,40.6,40.6,29.70,South,179,0.0,12.0,100,0.00,,,0.00,Wunderground v.1.15,2013-10-10 11:50:00,
2013-10-10 05:00:00,40.9,40.9,29.70,South,178,0.0,12.0,100,0.00,,,0.00,Wunderground v.1.15,2013-10-10 12:00:00,
2013-10-10 05:10:00,41.1,41.1,29.69,ESE,123,0.0,12.0,100,0.00,,,0.00,Wunderground v.1.15,2013-10-10 12:10:00,
2013-10-10 05:20:00,40.9,40.9,29.70,SE,124,0.0,12.0,100,0.00,,,0.00,Wunderground v.1.15,2013-10-10 12:20:00,
2013-10-10 05:30:00,40.9,40.9,29.70,ESE,123,0.0,12.0,100,0.00,,,0.00,Wunderground v.1.15,2013-10-10 12:30:00,
2013-10-10 05:40:00,40.8,40.8,29.70,ESE,123,0.0,12.0,100,0.00,,,0.00,Wunderground v.1.15,2013-10-10 12:40:00,
2013-10-10 05:50:00,41.2,41.2,29.70,ESE,123,0.0,12.0,100,0.00,,,0.00,Wunderground v.1.15,2013-10-10 12:50:00,
2013-10-10 06:00:00,41.2,41.2,29.70,ESE,123,0.0,12.0,100,0.00,,,0.00,Wunderground v.1.15,2013-10-10 13:00:00,
2013-10-10 06:10:00,40.9,40.9,29.71,ESE,123,0.0,12.0,100,0.00,,,0.00,Wunderground v.1.15,2013-10-10 13:10:00,
2013-10-10 06:20:00,41.2,41.2,29.71,ENE,61,0.0,12.0,100,0.00,,,0.00,Wunderground v.1.15,2013-10-10 13:20:00,
2013-10-10 06:30:00,40.9,40.9,29.71,ENE,61,0.0,12.0,100,0.00,,,0.00,Wunderground v.1.15,2013-10-10 13:30:00,
2013-10-10 06:40:00,40.3,40.3,29.70,ENE,61,0.0,12.0,100,0.00,,,0.00,Wunderground v.1.15,2013-10-10 13:40:00,
2013-10-10 06:50:00,40.8,40.8,29.72,ENE,59,0.0,12.0,100,0.00,,,0.00,Wunderground v.1.15,2013-10-10 13:50:00,
2013-10-10 07:00:00,41.1,41.1,29.72,ENE,59,0.0,12.0,100,0.00,,,0.00,Wunderground v.1.15,2013-10-10 14:00:00,
2013-10-10 07:10:00,41.3,41.3,29.71,ENE,59,0.0,12.0,100,0.00,,,0.00,Wunderground v.1.15,2013-10-10 14:10:00,
2013-10-10 07:20:00,41.3,41.3,29.72,ENE,59,0.0,12.0,100,0.00,,,0.00,Wunderground v.1.15,2013-10-10 14:20:00,
2013-10-10 07:30:00,41.2,41.2,29.72,ENE,59,0.0,12.0,100,0.00,,,0.00,Wunderground v.1.15,2013-10-10 14:30:00,
2013-10-10 07:40:00,41.1,41.1,29.73,ENE,59,0.0,12.0,100,0.00,,,0.00,Wunderground v.1.15,2013-10-10 14:40:00,
2013-10-10 07:50:00,41.6,41.6,29.73,West,275,0.0,12.0,100,0.00,,,0.00,Wunderground v.1.15,2013-10-10 14:50:00,
2013-10-10 08:00:00,41.6,41.6,29.73,West,275,0.0,12.0,100,0.00,,,0.00,Wunderground v.1.15,2013-10-10 15:00:00,
2013-10-10 08:10:00,41.6,41.6,29.75,West,275,0.0,12.0,100,0.00,,,0.00,Wunderground v.1.15,2013-10-10 15:10:00,
2013-10-10 08:20:00,41.8,41.8,29.75,West,275,0.0,12.0,100,0.00,,,0.00,Wunderground v.1.15,2013-10-10 15:20:00,
2013-10-10 08:30:00,43.8,43.8,29.75,West,275,0.0,12.0,100,0.00,,,0.00,Wunderground v.1.15,2013-10-10 15:30:00,
2013-10-10 08:40:00,46.1,46.1,29.76,West,275,0.0,12.0,100,0.00,,,0.00,Wunderground v.1.15,2013-10-10 15:40:00,
2013-10-10 08:50:00,48.3,48.3,29.77,West,275,0.0,12.0,100,0.00,,,0.00,Wunderground v.1.15,2013-10-10 15:50:00,
2013-10-10 09:00:00,50.5,50.5,29.77,West,275,0.0,12.0,100,0.00,,,0.00,Wunderground v.1.15,2013-10-10 16:00:00,
2013-10-10 09:10:00,52.5,52.5,29.77,West,275,0.0,12.0,100,0.00,,,0.00,Wunderground v.1.15,2013-10-10 16:10:00,
2013-10-10 09:20:00,54.2,54.2,29.77,West,275,0.0,12.0,100,0.00,,,0.00,Wunderground v.1.15,2013-10-10 16:20:00,
2013-10-10 09:30:00,56.0,56.0,29.77,West,275,0.0,12.0,100,0.00,,,0.00,Wunderground v.1.15,2013-10-10 16:30:00,
2013-10-10 09:40:00,57.6,57.6,29.77,ENE,66,0.0,12.0,100,0.00,,,0.00,Wunderground v.1.15,2013-10-10 16:40:00,
2013-10-10 09:50:00,59.0,59.0,29.78,East,82,0.0,12.0,100,0.00,,,0.00,Wunderground v.1.15,2013-10-10 16:50:00,
2013-10-10 10:00:00,59.6,59.6,29.78,ENE,75,0.0,12.0,100,0.00,,,0.00,Wunderground v.1.15,2013-10-10 17:00:00,
2013-10-10 10:10:00,61.2,60.9,29.78,ENE,76,0.0,12.0,99,0.00,,,0.00,Wunderground v.1.15,2013-10-10 17:10:00,
2013-10-10 10:20:00,62.9,62.3,29.79,SSW,205,0.0,12.0,98,0.00,,,0.00,Wunderground v.1.15,2013-10-10 17:20:00,
2013-10-10 10:30:00,63.7,62.5,29.79,SW,232,0.0,12.0,96,0.00,,,0.00,Wunderground v.1.15,2013-10-10 17:30:00,
2013-10-10 10:40:00,64.7,62.6,29.79,WSW,238,0.0,12.0,93,0.00,,,0.00,Wunderground v.1.15,2013-10-10 17:40:00,
2013-10-10 10:50:00,66.6,64.2,29.79,SE,133,0.0,12.0,92,0.00,,,0.00,Wunderground v.1.15,2013-10-10 17:50:00,
2013-10-10 11:00:00,68.6,66.5,29.79,NW,306,0.0,12.0,93,0.00,,,0.00,Wunderground v.1.15,2013-10-10 18:00:00,
2013-10-10 11:10:00,69.3,67.5,29.79,SW,214,0.0,12.0,94,0.00,,,0.00,Wunderground v.1.15,2013-10-10 18:10:00,
2013-10-10 11:20:00,68.6,67.4,29.79,NNW,328,1.0,12.0,96,0.00,,,0.00,Wunderground v.1.15,2013-10-10 18:20:00,
2013-10-10 11:30:00,68.4,67.2,29.79,SSW,192,1.0,1.0,96,0.00,,,0.00,Wunderground v.1.15,2013-10-10 18:30:00,
2013-10-10 11:40:00,68.6,67.4,29.79,West,275,1.0,1.0,96,0.00,,,0.00,Wunderground v.1.15,2013-10-10 18:40:00,
2013-10-10 11:50:00,68.9,67.1,29.80,West,271,2.0,2.0,94,0.00,,,0.00,Wunderground v.1.15,2013-10-10 18:50:00,
2013-10-10 12:00:00,69.1,67.3,29.80,West,277,1.0,1.0,94,0.00,,,0.00,Wunderground v.1.15,2013-10-10 19:00:00,
2013-10-10 12:10:00,69.1,67.6,29.80,WNW,284,2.0,2.0,95,0.00,,,0.00,Wunderground v.1.15,2013-10-10 19:10:00,
2013-10-10 12:20:00,69.1,67.0,29.79,WSW,258,3.0,12.0,93,0.00,,,0.00,Wunderground v.1.15,2013-10-10 19:20:00,
2013-10-10 12:30:00,68.9,67.1,29.79,SSW,192,2.0,2.0,94,0.00,,,0.00,Wunderground v.1.15,2013-10-10 19:30:00,
2013-10-10 12:40:00,70.4,68.6,29.79,SSE,158,2.0,12.0,94,0.00,,,0.00,Wunderground v.1.15,2013-10-10 19:40:00,
2013-10-10 12:50:00,70.1,68.3,29.80,SW,225,3.0,12.0,94,0.00,,,0.00,Wunderground v.1.15,2013-10-10 19:50:00,
2013-10-10 13:00:00,68.6,66.8,29.80,WNW,285,4.0,4.0,94,0.00,,,0.00,Wunderground v.1.15,2013-10-10 20:00:00,
2013-10-10 13:10:00,69.4,68.2,29.80,West,274,2.0,12.0,96,0.00,,,0.00,Wunderground v.1.15,2013-10-10 20:10:00,
2013-10-10 13:20:00,69.1,67.6,29.79,West,279,3.0,3.0,95,0.00,,,0.00,Wunderground v.1.15,2013-10-10 20:20:00,
2013-10-10 13:30:00,68.3,66.8,29.79,West,266,4.0,4.0,95,0.00,,,0.00,Wunderground v.1.15,2013-10-10 20:30:00,
2013-10-10 13:40:00,69.4,67.9,29.79,WNW,292,3.0,3.0,95,0.00,,,0.00,Wunderground v.1.15,2013-10-10 20:40:00,
2013-10-10 13:50:00,69.8,68.0,29.79,SW,226,3.0,3.0,94,0.00,,,0.00,Wunderground v.1.15,2013-10-10 20:50:00,
2013-10-10 14:00:00,69.1,67.6,29.79,SW,227,5.0,12.0,95,0.00,,,0.00,Wunderground v.1.15,2013-10-10 21:00:00,
2013-10-10 14:10:00,68.8,67.3,29.79,SSW,192,4.0,4.0,95,0.00,,,0.00,Wunderground v.1.15,2013-10-10 21:10:00,
2013-10-10 14:20:00,69.3,67.8,29.79,SW,220,3.0,3.0,95,0.00,,,0.00,Wunderground v.1.15,2013-10-10 21:20:00,
2013-10-10 14:30:00,71.1,69.6,29.79,West,275,1.0,12.0,95,0.00,,,0.00,Wunderground v.1.15,2013-10-10 21:30:00,
2013-10-10 14:40:00,72.5,70.0,29.79,SE,129,2.0,12.0,92,0.00,,,0.00,Wunderground v.1.15,2013-10-10 21:40:00,
2013-10-10 14:50:00,73.2,70.4,29.79,SE,124,1.0,1.0,91,0.00,,,0.00,Wunderground v.1.15,2013-10-10 21:50:00,
2013-10-10 15:00:00,72.5,70.0,29.79,SW,220,3.0,3.0,92,0.00,,,0.00,Wunderground v.1.15,2013-10-10 22:00:00,
2013-10-10 15:10:00,71.8,69.3,29.79,SSW,205,3.0,3.0,92,0.00,,,0.00,Wunderground v.1.15,2013-10-10 22:10:00,
2013-10-10 15:20:00,71.6,68.8,29.79,SW,219,3.0,12.0,91,0.00,,,0.00,Wunderground v.1.15,2013-10-10 22:20:00,
2013-10-10 15:30:00,71.1,68.7,29.79,WSW,240,4.0,4.0,92,0.00,,,0.00,Wunderground v.1.15,2013-10-10 22:30:00,
2013-10-10 15:40:00,71.3,68.9,29.79,WSW,238,3.0,12.0,92,0.00,,,0.00,Wunderground v.1.15,2013-10-10 22:40:00,
2013-10-10 15:50:00,70.9,68.5,29.79,WSW,237,3.0,3.0,92,0.00,,,0.00,Wunderground v.1.15,2013-10-10 22:50:00,
2013-10-10 16:00:00,71.1,68.7,29.79,SSW,207,3.0,12.0,92,0.00,,,0.00,Wunderground v.1.15,2013-10-10 23:00:00,
2013-10-10 16:10:00,70.8,68.0,29.80,SSW,213,2.0,2.0,91,0.00,,,0.00,Wunderground v.1.15,2013-10-10 23:10:00,
2013-10-10 16:20:00,71.3,68.9,29.80,WSW,257,1.0,1.0,92,0.00,,,0.00,Wunderground v.1.15,2013-10-10 23:20:00,
2013-10-10 16:30:00,71.1,68.7,29.80,WNW,291,2.0,12.0,92,0.00,,,0.00,Wunderground v.1.15,2013-10-10 23:30:00,
2013-10-10 16:40:00,70.4,68.3,29.80,WNW,296,2.0,12.0,93,0.00,,,0.00,Wunderground v.1.15,2013-10-10 23:40:00,
2013-10-10 16:50:00,69.9,68.1,29.80,WNW,292,1.0,12.0,94,0.00,,,0.00,Wunderground v.1.15,2013-10-10 23:50:00,
2013-10-10 17:00:00,69.1,67.0,29.80,SW,230,2.0,2.0,93,0.00,,,0.00,Wunderground v.1.15,2013-10-11 00:00:00,
2013-10-10 17:10:00,68.8,66.7,29.80,West,273,1.0,1.0,93,0.00,,,0.00,Wunderground v.1.15,2013-10-11 00:10:00,
2013-10-10 17:20:00,66.8,64.7,29.81,SW,235,3.0,12.0,93,0.00,,,0.00,Wunderground v.1.15,2013-10-11 00:20:00,
2013-10-10 17:30:00,64.5,62.7,29.81,WSW,237,5.0,5.0,94,0.00,,,0.00,Wunderground v.1.15,2013-10-11 00:30:00,
2013-10-10 17:40:00,62.9,60.8,29.82,SSW,207,4.0,12.0,93,0.00,,,0.00,Wunderground v.1.15,2013-10-11 00:40:00,
2013-10-10 17:50:00,62.6,60.2,29.82,SSW,212,2.0,2.0,92,0.00,,,0.00,Wunderground v.1.15,2013-10-11 00:50:00,
2013-10-10 18:00:00,61.5,59.5,29.82,SW,227,3.0,3.0,93,0.00,,,0.00,Wunderground v.1.15,2013-10-11 01:00:00,
2013-10-10 18:10:00,61.0,59.0,29.82,West,275,0.0,12.0,93,0.00,,,0.00,Wunderground v.1.15,2013-10-11 01:10:00,
2013-10-10 18:20:00,59.8,57.8,29.82,WNW,289,0.0,12.0,93,0.00,,,0.00,Wunderground v.1.15,2013-10-11 01:20:00,
2013-10-10 18:30:00,59.0,57.6,29.82,WNW,291,0.0,12.0,95,0.00,,,0.00,Wunderground v.1.15,2013-10-11 01:30:00,
2013-10-10 18:40:00,58.1,57.3,29.83,WNW,294,0.0,12.0,97,0.00,,,0.00,Wunderground v.1.15,2013-10-11 01:40:00,
2013-10-10 18:50:00,56.9,56.1,29.84,North,350,0.0,12.0,97,0.00,,,0.00,Wunderground v.1.15,2013-10-11 01:50:00,
2013-10-10 19:00:00,56.2,55.9,29.84,North,351,0.0,12.0,99,0.00,,,0.00,Wunderground v.1.15,2013-10-11 02:00:00,
2013-10-10 19:10:00,55.6,55.6,29.84,NE,38,1.0,12.0,100,0.00,,,0.00,Wunderground v.1.15,2013-10-11 02:10:00,
2013-10-10 19:20:00,54.8,54.8,29.85,NNE,15,0.0,12.0,100,0.00,,,0.00,Wunderground v.1.15,2013-10-11 02:20:00,
2013-10-10 19:30:00,53.9,53.9,29.85,NW,304,0.0,12.0,100,0.00,,,0.00,Wunderground v.1.15,2013-10-11 02:30:00,
2013-10-10 19:40:00,53.3,53.3,29.86,WNW,303,0.0,12.0,100,0.00,,,0.00,Wunderground v.1.15,2013-10-11 02:40:00,
2013-10-10 19:50:00,53.2,53.2,29.87,NW,304,0.0,12.0,100,0.00,,,0.00,Wunderground v.1.15,2013-10-11 02:50:00,
2013-10-10 20:00:00,53.1,53.1,29.87,NW,304,0.0,12.0,100,0.00,,,0.00,Wunderground v.1.15,2013-10-11 03:00:00,
2013-10-10 20:10:00,52.3,52.3,29.87,NW,307,0.0,12.0,100,0.00,,,0.00,Wunderground v.1.15,2013-10-11 03:10:00,
2013-10-10 20:20:00,51.9,51.9,29.87,North,360,0.0,12.0,100,0.00,,,0.00,Wunderground v.1.15,2013-10-11 03:20:00,
2013-10-10 20:30:00,51.6,51.6,29.87,NE,40,0.0,12.0,100,0.00,,,0.00,Wunderground v.1.15,2013-10-11 03:30:00,
2013-10-10 20:40:00,51.4,51.4,29.88,NE,39,0.0,12.0,100,0.00,,,0.00,Wunderground v.1.15,2013-10-11 03:40:00,
2013-10-10 20:50:00,51.0,51.0,29.88,NE,39,0.0,12.0,100,0.00,,,0.00,Wunderground v.1.15,2013-10-11 03:50:00,
2013-10-10 21:00:00,50.2,50.2,29.88,NE,39,0.0,12.0,100,0.00,,,0.00,Wunderground v.1.15,2013-10-11 04:00:00,
2013-10-10 21:10:00,49.2,49.2,29.88,NE,39,0.0,12.0,100,0.00,,,0.00,Wunderground v.1.15,2013-10-11 04:10:00,
2013-10-10 21:20:00,48.5,48.5,29.88,NE,39,0.0,12.0,100,0.00,,,0.00,Wunderground v.1.15,2013-10-11 04:20:00,
2013-10-10 21:30:00,47.4,47.4,29.88,NE,39,0.0,12.0,100,0.00,,,0.00,Wunderground v.1.15,2013-10-11 04:30:00,
2013-10-10 21:40:00,46.5,46.5,29.89,NE,39,0.0,12.0,100,0.00,,,0.00,Wunderground v.1.15,2013-10-11 04:40:00,
2013-10-10 21:50:00,45.8,45.8,29.89,NE,39,0.0,12.0,100,0.00,,,0.00,Wunderground v.1.15,2013-10-11 04:50:00,
2013-10-10 22:00:00,45.4,45.4,29.89,NE,38,0.0,12.0,100,0.00,,,0.00,Wunderground v.1.15,2013-10-11 05:00:00,
2013-10-10 22:10:00,45.4,45.4,29.89,NE,39,0.0,12.0,100,0.00,,,0.00,Wunderground v.1.15,2013-10-11 05:10:00,
2013-10-10 22:20:00,45.1,45.1,29.89,NE,39,0.0,12.0,100,0.00,,,0.00,Wunderground v.1.15,2013-10-11 05:20:00,
2013-10-10 22:30:00,44.6,44.6,29.89,NE,39,0.0,12.0,100,0.00,,,0.00,Wunderground v.1.15,2013-10-11 05:30:00,
2013-10-10 22:40:00,43.9,43.9,29.89,NE,39,0.0,12.0,100,0.00,,,0.00,Wunderground v.1.15,2013-10-11 05:40:00,
2013-10-10 22:50:00,43.9,43.9,29.90,NE,39,0.0,12.0,100,0.00,,,0.00,Wunderground v.1.15,2013-10-11 05:50:00,
2013-10-10 23:00:00,43.8,43.8,29.90,NE,39,0.0,12.0,100,0.00,,,0.00,Wunderground v.1.15,2013-10-11 06:00:00,
2013-10-10 23:10:00,43.1,43.1,29.90,NE,39,0.0,12.0,100,0.00,,,0.00,Wunderground v.1.15,2013-10-11 06:10:00,
2013-10-10 23:20:00,42.3,42.3,29.90,NE,39,0.0,12.0,100,0.00,,,0.00,Wunderground v.1.15,2013-10-11 06:20:00,
2013-10-10 23:30:00,42.2,42.2,29.90,NE,40,0.0,12.0,100,0.00,,,0.00,Wunderground v.1.15,2013-10-11 06:30:00,
2013-10-10 23:40:00,42.2,42.2,29.90,NE,39,0.0,12.0,100,0.00,,,0.00,Wunderground v.1.15,2013-10-11 06:40:00,
2013-10-10 23:50:00,41.9,41.9,29.90,NE,39,0.0,12.0,100,0.00,,,0.00,Wunderground v.1.15,2013-10-11 06:50:00,